Time;durP1;ratioP1;P1;durP2;ratioP2;P2;SDS_P1;SDS_P2;PMS_P1;PMS_P2;Temp;Humidity;BMP_temperature;BMP_pressure;BME280_temperature;BME280_humidity;BME280_pressure;Samples;Min_cycle;Max_cycle;Signal;HPM_P1;HPM_P2
2022/12/24 00:00:05;;;;;;;40.67;25.67;;;7.90;99.90;;;;;;7366660;19;20370;-60
2022/12/24 00:02:33;;;;;;;41.80;27.33;;;7.90;99.90;;;;;;7372549;19;20441;-60
2022/12/24 00:05:00;;;;;;;47.28;26.33;;;8.00;99.90;;;;;;7366368;19;20022;-61
2022/12/24 00:07:26;;;;;;;44.55;26.45;;;8.00;99.90;;;;;;7370842;19;20018;-60
2022/12/24 00:09:52;;;;;;;54.42;28.80;;;8.10;99.90;;;;;;7366813;19;20025;-59
2022/12/24 00:12:18;;;;;;;55.78;28.98;;;8.20;99.90;;;;;;7367915;19;20014;-60
2022/12/24 00:14:45;;;;;;;57.95;28.92;;;8.20;99.90;;;;;;7365586;19;20806;-60
2022/12/24 00:17:11;;;;;;;60.38;30.38;;;8.30;99.90;;;;;;7365077;19;20390;-60
2022/12/24 00:19:37;;;;;;;57.83;29.15;;;8.40;99.90;;;;;;7367098;19;20154;-59
2022/12/24 00:22:04;;;;;;;57.78;30.38;;;8.40;99.90;;;;;;7368514;19;20021;-59
2022/12/24 00:24:31;;;;;;;61.35;31.80;;;8.50;99.90;;;;;;7366035;19;20024;-59
2022/12/24 00:26:57;;;;;;;68.13;30.92;;;8.50;99.90;;;;;;7365746;19;20664;-60
2022/12/24 00:29:24;;;;;;;62.33;30.45;;;8.50;99.90;;;;;;7360910;19;20022;-59
2022/12/24 00:31:50;;;;;;;60.00;31.38;;;8.60;99.90;;;;;;7363755;19;20117;-59
2022/12/24 00:34:16;;;;;;;64.53;32.00;;;8.50;99.90;;;;;;7366366;19;20841;-60
2022/12/24 00:36:50;;;;;;;56.33;31.13;;;8.60;99.90;;;;;;7367751;19;20481;-59
2022/12/24 00:39:17;;;;;;;57.97;32.33;;;8.60;99.90;;;;;;7362864;19;20025;-47
2022/12/24 00:41:46;;;;;;;59.95;31.05;;;8.60;99.90;;;;;;7367078;19;20022;-60
2022/12/24 00:44:13;;;;;;;55.22;31.20;;;8.60;99.90;;;;;;7364266;19;20699;-47
2022/12/24 00:46:42;;;;;;;62.97;31.83;;;8.60;99.90;;;;;;7369243;19;20054;-46
2022/12/24 00:49:11;;;;;;;61.75;32.55;;;8.70;99.90;;;;;;7366510;19;20017;-60
2022/12/24 00:51:38;;;;;;;64.72;32.45;;;8.70;99.90;;;;;;7365237;19;20473;-59
2022/12/24 00:54:05;;;;;;;62.67;31.50;;;8.70;99.90;;;;;;7360601;19;20018;-60
2022/12/24 00:56:33;;;;;;;58.13;33.00;;;8.70;99.90;;;;;;7364813;19;20026;-59
2022/12/24 00:59:02;;;;;;;56.22;33.13;;;8.70;99.90;;;;;;7363705;19;20037;-59
2022/12/24 01:01:29;;;;;;;64.93;33.22;;;8.80;99.90;;;;;;7368500;19;20094;-51
2022/12/24 01:05:09;;;;;;;58.60;32.38;;;8.80;99.90;;;;;;7369979;19;20049;-46
2022/12/24 01:06:41;;;;;;;64.85;33.67;;;8.80;99.90;;;;;;7367717;19;20513;-61
2022/12/24 01:09:27;;;;;;;65.05;34.00;;;8.80;99.90;;;;;;7361487;19;20022;-59
2022/12/24 01:11:53;;;;;;;68.45;32.40;;;8.80;99.90;;;;;;7362586;19;20863;-59
2022/12/24 01:14:20;;;;;;;66.13;33.10;;;8.80;99.90;;;;;;7366170;19;20545;-45
2022/12/24 01:16:46;;;;;;;67.07;33.65;;;8.80;99.90;;;;;;7366504;19;20628;-51
2022/12/24 01:19:12;;;;;;;67.55;32.67;;;8.80;99.90;;;;;;7369612;19;20090;-45
2022/12/24 01:21:39;;;;;;;67.75;32.03;;;8.80;99.90;;;;;;7368364;19;20497;-49
2022/12/24 01:24:05;;;;;;;63.80;33.13;;;8.80;99.90;;;;;;7364855;19;20031;-50
2022/12/24 01:26:31;;;;;;;65.05;32.20;;;8.80;99.90;;;;;;7372100;19;20038;-48
2022/12/24 01:28:58;;;;;;;55.78;29.98;;;8.80;99.90;;;;;;7365518;19;20033;-59
2022/12/24 01:31:25;;;;;;;55.13;29.77;;;8.90;99.90;;;;;;7365931;19;20019;-48
2022/12/24 01:33:51;;;;;;;49.25;27.77;;;8.90;99.90;;;;;;7364998;19;20018;-59
2022/12/24 01:36:17;;;;;;;45.78;27.52;;;8.90;99.90;;;;;;7366094;19;20059;-47
2022/12/24 01:38:43;;;;;;;39.42;25.27;;;8.90;99.90;;;;;;7362790;19;20489;-59
2022/12/24 01:44:25;;;;;;;41.40;26.67;;;9.00;99.90;;;;;;7363616;19;20105;-50
2022/12/24 01:47:30;;;;;;;40.72;24.67;;;9.00;99.90;;;;;;7362005;19;20347;-49
2022/12/24 01:50:00;;;;;;;40.22;22.85;;;9.00;99.90;;;;;;7356770;19;20444;-46
2022/12/24 01:52:34;;;;;;;35.72;22.30;;;9.00;99.90;;;;;;7366433;19;20022;-49
2022/12/24 01:55:15;;;;;;;29.52;20.17;;;9.10;99.90;;;;;;7361250;19;20026;-51
2022/12/24 01:57:53;;;;;;;34.08;20.35;;;9.10;99.90;;;;;;7363967;19;20053;-48
2022/12/24 02:00:19;;;;;;;25.35;18.05;;;9.10;99.90;;;;;;7360032;19;20370;-51
2022/12/24 02:02:49;;;;;;;26.88;16.23;;;9.10;99.90;;;;;;7361611;19;20011;-60
2022/12/24 02:05:24;;;;;;;27.30;16.60;;;9.10;99.90;;;;;;7361708;19;20454;-53
2022/12/24 02:07:51;;;;;;;30.92;16.40;;;9.10;99.90;;;;;;7365439;19;20022;-48
2022/12/24 02:10:23;;;;;;;29.23;17.65;;;9.10;99.90;;;;;;7359498;19;20049;-50
2022/12/24 02:12:51;;;;;;;24.85;15.38;;;9.10;99.90;;;;;;7364679;19;20018;-59
2022/12/24 02:15:18;;;;;;;33.40;16.55;;;9.10;99.90;;;;;;7362490;19;20029;-59
2022/12/24 02:18:03;;;;;;;24.35;16.85;;;9.20;99.90;;;;;;7355965;19;20655;-60
2022/12/24 02:20:52;;;;;;;25.23;16.27;;;9.10;99.90;;;;;;7363545;19;20031;-59
2022/12/24 02:23:38;;;;;;;24.02;15.80;;;9.20;99.90;;;;;;7361887;19;20411;-59
2022/12/24 02:26:42;;;;;;;24.13;13.55;;;9.20;99.90;;;;;;7363718;19;20741;-59
2022/12/24 02:29:38;;;;;;;30.83;14.30;;;9.20;99.90;;;;;;7364121;19;20023;-59
2022/12/24 02:32:08;;;;;;;23.90;13.88;;;9.20;99.90;;;;;;7358679;19;20373;-59
2022/12/24 02:34:58;;;;;;;23.33;13.75;;;9.20;99.90;;;;;;7360608;19;20439;-59
2022/12/24 02:37:34;;;;;;;18.50;11.18;;;9.20;99.90;;;;;;7365503;19;20023;-59
2022/12/24 02:40:21;;;;;;;23.92;10.43;;;9.10;99.90;;;;;;7361743;19;20372;-49
2022/12/24 02:42:54;;;;;;;24.02;8.63;;;9.10;99.90;;;;;;7361666;19;20018;-46
2022/12/24 02:45:26;;;;;;;25.65;8.25;;;9.20;99.90;;;;;;7359097;19;20018;-49
2022/12/24 02:47:54;;;;;;;40.30;7.93;;;9.20;99.90;;;;;;7362928;19;20127;-59
2022/12/24 02:50:22;;;;;;;43.28;7.68;;;9.20;99.90;;;;;;7357878;19;20044;-49
2022/12/24 02:52:49;;;;;;;42.58;7.55;;;9.10;99.90;;;;;;7362278;19;20501;-49
2022/12/24 02:55:23;;;;;;;37.65;7.75;;;9.10;99.90;;;;;;7355534;19;20038;-59
2022/12/24 02:57:58;;;;;;;50.28;8.55;;;9.10;99.90;;;;;;7366160;19;20030;-59
2022/12/24 03:00:25;;;;;;;56.03;9.20;;;9.10;99.90;;;;;;7361362;19;20018;-59
2022/12/24 03:03:27;;;;;;;55.10;8.68;;;9.10;99.90;;;;;;7358677;19;20030;-59
2022/12/24 03:06:08;;;;;;;42.00;6.88;;;9.10;99.90;;;;;;7360983;19;20029;-59
2022/12/24 03:09:10;;;;;;;37.90;7.53;;;9.10;99.90;;;;;;7358185;19;20031;-59
2022/12/24 03:11:39;;;;;;;50.92;7.75;;;9.10;99.90;;;;;;7359634;19;20022;-50
2022/12/24 03:14:05;;;;;;;39.83;7.03;;;9.00;99.90;;;;;;7362315;19;20015;-50
2022/12/24 03:16:32;;;;;;;38.70;8.07;;;9.00;99.90;;;;;;7351382;19;20014;-46
2022/12/24 03:18:59;;;;;;;40.17;8.05;;;9.00;99.90;;;;;;7351764;19;20413;-49
2022/12/24 03:21:36;;;;;;;46.37;7.50;;;9.00;99.90;;;;;;7355057;19;20049;-49
2022/12/24 03:24:03;;;;;;;41.17;7.53;;;8.90;99.90;;;;;;7354240;19;20423;-47
2022/12/24 03:26:31;;;;;;;40.40;8.27;;;8.90;99.90;;;;;;7349734;19;20022;-59
2022/12/24 03:28:58;;;;;;;38.03;6.28;;;8.90;99.90;;;;;;7352512;19;20375;-46
2022/12/24 03:31:43;;;;;;;24.92;6.05;;;8.90;99.90;;;;;;7349755;19;20010;-47
2022/12/24 03:34:10;;;;;;;36.42;5.88;;;9.00;99.90;;;;;;7355016;19;20023;-48
2022/12/24 03:36:38;;;;;;;41.28;6.97;;;9.00;99.90;;;;;;7350438;19;20052;-60
2022/12/24 03:39:09;;;;;;;39.42;6.18;;;9.10;99.90;;;;;;7353791;19;20023;-46
2022/12/24 03:41:36;;;;;;;38.58;6.68;;;9.20;99.90;;;;;;7356040;19;20607;-46
2022/12/24 03:44:03;;;;;;;45.15;6.78;;;9.30;99.90;;;;;;7354567;19;20018;-48
2022/12/24 03:46:29;;;;;;;32.05;6.90;;;9.30;99.90;;;;;;7355805;19;20031;-48
2022/12/24 03:48:57;;;;;;;35.03;6.72;;;9.30;99.90;;;;;;7357485;19;20026;-49
2022/12/24 03:51:24;;;;;;;37.17;6.90;;;9.30;99.90;;;;;;7351114;19;20010;-49
2022/12/24 03:53:52;;;;;;;38.35;5.95;;;9.30;99.90;;;;;;7353558;19;20015;-50
2022/12/24 03:56:19;;;;;;;35.70;7.20;;;9.20;99.90;;;;;;7353027;19;20579;-50
2022/12/24 03:58:46;;;;;;;36.58;7.63;;;9.20;99.90;;;;;;7355125;19;20410;-59
2022/12/24 04:01:13;;;;;;;41.75;7.60;;;9.20;99.90;;;;;;7351508;19;20392;-59
2022/12/24 04:03:39;;;;;;;33.72;6.45;;;9.20;99.90;;;;;;7359733;19;20018;-60
2022/12/24 04:06:11;;;;;;;38.50;7.05;;;9.20;99.90;;;;;;7354052;19;20046;-45
2022/12/24 04:08:40;;;;;;;42.72;8.65;;;9.10;99.90;;;;;;7356936;19;20033;-48
2022/12/24 04:11:09;;;;;;;39.33;7.32;;;9.10;99.90;;;;;;7354768;19;20025;-48
2022/12/24 04:13:36;;;;;;;41.75;8.27;;;9.10;99.90;;;;;;7357752;19;20363;-46
2022/12/24 04:16:07;;;;;;;42.75;7.68;;;9.10;99.90;;;;;;7352194;19;20018;-59
2022/12/24 04:18:35;;;;;;;40.05;7.53;;;9.10;99.90;;;;;;7347676;19;20018;-60
2022/12/24 04:21:01;;;;;;;39.08;7.28;;;9.10;99.90;;;;;;7353720;19;20476;-45
2022/12/24 04:23:30;;;;;;;39.10;7.88;;;9.10;99.90;;;;;;7353942;19;20022;-45
2022/12/24 04:26:01;;;;;;;39.97;7.20;;;9.10;99.90;;;;;;7354178;19;20030;-46
2022/12/24 04:28:29;;;;;;;45.40;7.57;;;9.10;99.90;;;;;;7353708;19;20608;-47
2022/12/24 04:31:04;;;;;;;51.22;8.43;;;9.10;99.90;;;;;;7350101;19;20029;-47
2022/12/24 04:33:31;;;;;;;49.85;8.70;;;9.00;99.90;;;;;;7352602;19;20057;-45
2022/12/24 04:35:58;;;;;;;51.58;7.75;;;9.00;99.90;;;;;;7353925;19;20029;-50
2022/12/24 04:38:25;;;;;;;44.20;7.90;;;9.00;99.90;;;;;;7349123;19;20019;-47
2022/12/24 04:41:04;;;;;;;45.20;7.90;;;8.90;99.90;;;;;;7353010;19;20018;-46
2022/12/24 04:43:39;;;;;;;47.65;7.75;;;9.00;99.90;;;;;;7358974;19;20023;-48
2022/12/24 04:46:13;;;;;;;49.45;8.40;;;8.90;99.90;;;;;;7359743;19;20045;-59
2022/12/24 04:48:44;;;;;;;40.20;7.93;;;8.90;99.90;;;;;;7361350;19;20930;-59
2022/12/24 04:51:11;;;;;;;47.33;8.05;;;9.00;99.90;;;;;;7356665;19;20018;-45
2022/12/24 04:53:38;;;;;;;47.08;7.80;;;9.00;99.90;;;;;;7356869;19;20473;-59
2022/12/24 04:56:22;;;;;;;49.63;9.10;;;9.00;99.90;;;;;;7359531;19;20018;-59
2022/12/24 04:58:50;;;;;;;45.38;7.63;;;9.00;99.90;;;;;;7358256;19;20049;-59
2022/12/24 05:01:22;;;;;;;51.15;9.35;;;9.00;99.90;;;;;;7357964;19;20897;-60
2022/12/24 05:03:50;;;;;;;54.90;9.00;;;9.00;99.90;;;;;;7359560;19;20453;-59
2022/12/24 05:06:22;;;;;;;53.65;7.18;;;9.00;99.90;;;;;;7359911;19;20589;-60
2022/12/24 05:08:49;;;;;;;47.45;7.70;;;9.00;99.90;;;;;;7361007;19;20018;-60
2022/12/24 05:11:15;;;;;;;46.58;8.60;;;9.00;99.90;;;;;;7356350;19;20023;-59
2022/12/24 05:13:43;;;;;;;51.50;9.63;;;9.00;99.90;;;;;;7357093;19;20608;-60
2022/12/24 05:16:10;;;;;;;53.22;7.47;;;9.10;99.90;;;;;;7357739;19;20070;-59
2022/12/24 05:18:37;;;;;;;47.00;7.45;;;9.10;99.90;;;;;;7360876;19;20033;-60
2022/12/24 05:21:08;;;;;;;40.53;7.53;;;9.10;99.90;;;;;;7357480;19;20663;-60
2022/12/24 05:26:36;;;;;;;51.38;9.20;;;9.20;99.90;;;;;;7351131;19;20505;-59
2022/12/24 05:29:05;;;;;;;53.90;8.77;;;9.20;99.90;;;;;;7353154;19;20601;-59
2022/12/24 05:31:33;;;;;;;48.97;7.95;;;9.20;99.90;;;;;;7354634;19;20078;-59
2022/12/24 05:34:02;;;;;;;53.45;8.30;;;9.20;99.90;;;;;;7350996;19;20018;-59
2022/12/24 05:36:28;;;;;;;47.58;7.55;;;9.20;99.90;;;;;;7348579;19;20625;-59
2022/12/24 05:38:55;;;;;;;40.63;8.63;;;9.20;99.90;;;;;;7357200;19;20022;-59
2022/12/24 05:41:22;;;;;;;41.58;7.05;;;9.20;99.90;;;;;;7357130;19;20018;-59
2022/12/24 05:43:49;;;;;;;48.80;8.63;;;9.20;99.90;;;;;;7359230;19;20022;-59
2022/12/24 05:46:17;;;;;;;41.80;9.30;;;9.20;99.90;;;;;;7355218;19;20715;-59
2022/12/24 05:48:48;;;;;;;46.38;7.53;;;9.20;99.90;;;;;;7359388;19;20057;-59
2022/12/24 05:51:21;;;;;;;61.38;9.95;;;9.20;99.90;;;;;;7350985;19;20584;-61
2022/12/24 05:53:49;;;;;;;56.53;9.18;;;9.20;99.90;;;;;;7358155;19;20014;-59
2022/12/24 05:56:19;;;;;;;44.65;8.05;;;9.20;99.90;;;;;;7352557;19;20468;-59
2022/12/24 05:58:46;;;;;;;42.67;8.65;;;9.30;99.90;;;;;;7360544;19;20023;-59
2022/12/24 06:01:13;;;;;;;47.38;9.07;;;9.20;99.90;;;;;;7356119;19;20014;-59
2022/12/24 06:03:40;;;;;;;52.75;8.13;;;9.20;99.90;;;;;;7352557;19;20065;-59
2022/12/24 06:06:18;;;;;;;55.13;8.20;;;9.20;99.90;;;;;;7354320;19;20571;-49
2022/12/24 06:08:44;;;;;;;47.60;9.15;;;9.20;99.90;;;;;;7362085;19;20086;-48
2022/12/24 06:11:14;;;;;;;48.45;8.73;;;9.20;99.90;;;;;;7354719;19;20066;-59
2022/12/24 06:13:42;;;;;;;46.40;9.70;;;9.30;99.90;;;;;;7360023;19;20022;-60
2022/12/24 06:16:17;;;;;;;49.97;9.50;;;9.20;99.90;;;;;;7350310;19;20573;-59
2022/12/24 06:18:53;;;;;;;53.55;10.32;;;9.30;99.90;;;;;;7356599;19;20065;-59
2022/12/24 06:21:19;;;;;;;51.13;10.50;;;9.30;99.90;;;;;;7351520;19;20881;-59
2022/12/24 06:23:46;;;;;;;48.85;10.88;;;9.30;99.90;;;;;;7358133;19;20022;-60
2022/12/24 06:26:18;;;;;;;52.50;11.23;;;9.30;99.90;;;;;;7351535;19;20029;-59
2022/12/24 06:28:45;;;;;;;42.45;9.52;;;9.30;99.90;;;;;;7361262;19;20402;-46
2022/12/24 06:31:13;;;;;;;49.17;10.13;;;9.40;99.90;;;;;;7349819;19;20014;-49
2022/12/24 06:33:43;;;;;;;52.35;9.60;;;9.40;99.90;;;;;;7358025;19;20413;-59
2022/12/24 06:36:13;;;;;;;48.30;10.65;;;9.40;99.90;;;;;;7354118;19;20032;-59
2022/12/24 06:38:40;;;;;;;50.73;10.03;;;9.40;99.90;;;;;;7354602;19;20030;-59
2022/12/24 06:41:07;;;;;;;48.22;10.07;;;9.40;99.90;;;;;;7344010;19;20982;-59
2022/12/24 06:43:34;;;;;;;47.25;10.13;;;9.40;99.90;;;;;;7354318;19;20968;-59
2022/12/24 06:46:03;;;;;;;51.08;10.10;;;9.40;99.90;;;;;;7350092;19;20441;-59
2022/12/24 06:48:30;;;;;;;48.55;9.98;;;9.40;99.90;;;;;;7355385;19;20347;-59
2022/12/24 06:50:56;;;;;;;49.90;11.25;;;9.40;99.90;;;;;;7350922;19;20041;-59
2022/12/24 06:53:23;;;;;;;41.40;8.93;;;9.40;99.90;;;;;;7353704;19;20026;-49
2022/12/24 06:55:52;;;;;;;52.03;10.40;;;9.40;99.90;;;;;;7355245;19;20596;-46
2022/12/24 06:58:18;;;;;;;48.85;9.50;;;9.40;99.90;;;;;;7354215;19;20010;-59
2022/12/24 07:00:47;;;;;;;44.03;9.63;;;9.40;99.90;;;;;;7355381;19;20601;-59
2022/12/24 07:03:13;;;;;;;47.25;9.95;;;9.40;99.90;;;;;;7355947;19;20014;-60
2022/12/24 07:05:42;;;;;;;40.65;8.38;;;9.50;99.90;;;;;;7356997;19;20022;-59
2022/12/24 07:08:14;;;;;;;45.67;8.20;;;9.50;99.90;;;;;;7355387;19;20451;-59
2022/12/24 07:10:41;;;;;;;50.33;8.65;;;9.40;99.90;;;;;;7350395;19;20372;-60
2022/12/24 07:13:08;;;;;;;36.38;8.18;;;9.40;99.90;;;;;;7350632;19;20470;-60
2022/12/24 07:16:08;;;;;;;69.18;35.10;;;9.40;99.90;;;;;;7355079;19;20026;-58
2022/12/24 07:18:35;;;;;;;68.55;32.08;;;9.40;99.90;;;;;;7355758;19;20607;-58
2022/12/24 07:21:03;;;;;;;47.72;13.77;;;9.40;99.90;;;;;;7353880;19;20018;-57
2022/12/24 07:23:30;;;;;;;45.22;16.02;;;9.30;99.90;;;;;;7354837;19;20109;-55
2022/12/24 07:26:01;;;;;;;36.28;6.63;;;9.30;99.90;;;;;;7352042;19;20041;-58
2022/12/24 07:28:28;;;;;;;29.27;6.32;;;9.30;99.90;;;;;;7355694;19;20776;-58
2022/12/24 07:30:56;;;;;;;33.60;6.88;;;9.30;99.90;;;;;;7350184;19;20037;-46
2022/12/24 07:33:23;;;;;;;47.78;7.80;;;9.30;99.90;;;;;;7354481;19;20511;-49
2022/12/24 07:35:57;;;;;;;40.13;7.13;;;9.30;99.90;;;;;;7360314;19;20897;-50
2022/12/24 07:38:24;;;;;;;39.53;7.95;;;9.20;99.90;;;;;;7351970;19;20489;-48
2022/12/24 07:40:50;;;;;;;34.65;7.43;;;9.30;99.90;;;;;;7352342;19;20011;-58
2022/12/24 07:43:16;;;;;;;40.90;8.40;;;9.20;99.90;;;;;;7353003;19;20473;-58
2022/12/24 07:45:43;;;;;;;37.78;8.55;;;9.20;99.90;;;;;;7354708;19;20081;-58
2022/12/24 07:48:09;;;;;;;41.33;8.85;;;9.20;99.90;;;;;;7352951;19;20429;-48
2022/12/24 07:50:35;;;;;;;47.85;9.63;;;9.30;99.90;;;;;;7348773;19;20509;-59
2022/12/24 07:53:02;;;;;;;40.00;7.93;;;9.30;99.90;;;;;;7353861;19;20014;-58
2022/12/24 07:55:29;;;;;;;38.13;7.65;;;9.20;99.90;;;;;;7353280;19;20648;-58
2022/12/24 07:57:56;;;;;;;38.38;8.93;;;9.20;99.90;;;;;;7350986;19;20050;-47
2022/12/24 08:00:23;;;;;;;37.92;7.57;;;9.20;99.90;;;;;;7348895;19;20025;-58
2022/12/24 08:02:49;;;;;;;39.00;8.35;;;9.20;99.90;;;;;;7354152;19;20041;-58
2022/12/24 08:05:16;;;;;;;33.92;6.93;;;9.20;99.90;;;;;;7355997;19;20806;-49
2022/12/24 08:07:46;;;;;;;42.25;7.82;;;9.20;99.90;;;;;;7352783;19;20014;-46
2022/12/24 08:10:12;;;;;;;37.30;8.38;;;9.20;99.90;;;;;;7353183;19;20022;-50
2022/12/24 08:12:38;;;;;;;42.80;7.95;;;9.20;99.90;;;;;;7352053;19;20478;-58
2022/12/24 08:15:05;;;;;;;36.03;8.55;;;9.20;99.90;;;;;;7354081;19;20584;-58
2022/12/24 08:17:31;;;;;;;39.25;8.20;;;9.20;99.90;;;;;;7352896;19;20457;-58
2022/12/24 08:19:57;;;;;;;36.90;7.85;;;9.30;99.90;;;;;;7364466;19;20022;-58
2022/12/24 08:22:24;;;;;;;35.53;7.75;;;9.30;99.90;;;;;;7358729;19;20026;-49
2022/12/24 08:24:50;;;;;;;44.78;8.73;;;9.30;99.90;;;;;;7362870;19;20061;-47
2022/12/24 08:27:17;;;;;;;41.22;8.30;;;9.30;99.90;;;;;;7366625;19;20573;-58
2022/12/24 08:29:44;;;;;;;36.83;7.68;;;9.30;99.90;;;;;;7358285;19;20619;-46
2022/12/24 08:32:10;;;;;;;41.20;8.88;;;9.40;99.90;;;;;;7359448;19;20754;-58
2022/12/24 08:34:37;;;;;;;39.03;8.13;;;9.30;99.90;;;;;;7353570;19;20026;-57
2022/12/24 08:37:03;;;;;;;72.88;39.83;;;9.40;99.90;;;;;;7365251;19;20015;-55
2022/12/24 08:39:34;;;;;;;38.38;8.48;;;9.50;99.90;;;;;;7366076;19;20105;-57
2022/12/24 08:42:00;;;;;;;33.30;8.18;;;9.40;99.90;;;;;;7363274;19;20175;-57
2022/12/24 08:44:26;;;;;;;45.05;8.65;;;9.50;99.90;;;;;;7365617;19;20010;-57
2022/12/24 08:46:53;;;;;;;41.33;8.45;;;9.50;99.90;;;;;;7366434;19;20029;-57
2022/12/24 08:49:26;;;;;;;37.88;8.13;;;9.50;99.90;;;;;;7360386;19;20380;-47
2022/12/24 08:51:52;;;;;;;50.38;9.02;;;9.50;99.90;;;;;;7359942;19;20041;-46
2022/12/24 08:54:19;;;;;;;40.17;9.90;;;9.60;99.90;;;;;;7360109;19;20031;-47
2022/12/24 08:56:46;;;;;;;42.13;9.25;;;9.60;99.90;;;;;;7363276;19;20382;-47
2022/12/24 08:59:12;;;;;;;54.85;10.13;;;9.60;99.90;;;;;;7360044;19;20022;-49
2022/12/24 09:01:39;;;;;;;45.50;9.10;;;9.60;99.90;;;;;;7367162;19;20612;-46
2022/12/24 09:04:05;;;;;;;39.35;10.75;;;9.60;99.90;;;;;;7359754;19;20125;-50
2022/12/24 09:06:32;;;;;;;47.45;11.25;;;9.70;99.90;;;;;;7362312;19;20113;-49
2022/12/24 09:08:58;;;;;;;36.13;8.77;;;9.70;99.90;;;;;;7359850;19;20045;-49
2022/12/24 09:11:25;;;;;;;54.40;11.02;;;9.70;99.90;;;;;;7360549;19;20018;-45
2022/12/24 09:13:51;;;;;;;39.05;9.48;;;9.70;99.90;;;;;;7363737;19;20011;-48
2022/12/24 09:16:17;;;;;;;58.05;11.52;;;9.70;99.90;;;;;;7361676;19;20039;-45
2022/12/24 09:18:48;;;;;;;47.38;9.55;;;9.70;99.90;;;;;;7359729;19;20445;-47
2022/12/24 09:21:16;;;;;;;44.13;10.25;;;9.80;99.90;;;;;;7360029;19;20019;-48
2022/12/24 09:23:45;;;;;;;39.83;10.13;;;9.80;99.90;;;;;;7362383;19;20029;-48
2022/12/24 09:26:21;;;;;;;48.30;10.25;;;9.80;99.90;;;;;;7363085;19;20023;-50
2022/12/24 09:28:48;;;;;;;47.75;10.95;;;9.80;99.90;;;;;;7359870;19;20015;-50
2022/12/24 09:31:28;;;;;;;45.85;10.50;;;9.80;99.90;;;;;;7357306;19;20014;-49
2022/12/24 09:33:54;;;;;;;49.33;10.55;;;9.80;99.90;;;;;;7359509;19;20129;-49
2022/12/24 09:36:21;;;;;;;41.97;9.57;;;9.80;99.90;;;;;;7358951;19;20021;-47
2022/12/24 09:38:49;;;;;;;46.40;11.18;;;9.90;99.90;;;;;;7362803;19;20061;-58
2022/12/24 09:41:41;;;;;;;41.38;9.82;;;9.90;99.90;;;;;;7358980;19;20034;-57
2022/12/24 09:44:33;;;;;;;41.22;9.55;;;10.00;99.90;;;;;;7359398;19;20030;-47
2022/12/24 09:47:08;;;;;;;46.40;10.68;;;10.00;99.90;;;;;;7360309;19;20414;-47
2022/12/24 09:49:44;;;;;;;47.13;9.85;;;9.90;99.90;;;;;;7354312;19;20022;-50
2022/12/24 09:52:16;;;;;;;44.13;10.45;;;9.90;99.90;;;;;;7359351;19;20090;-56
2022/12/24 09:54:59;;;;;;;36.78;9.43;;;9.80;99.90;;;;;;7361859;19;20045;-57
2022/12/24 09:57:34;;;;;;;39.42;8.85;;;9.80;99.90;;;;;;7360368;19;20041;-45
2022/12/24 10:00:04;;;;;;;38.60;9.48;;;9.80;99.90;;;;;;7361587;19;21014;-49
2022/12/24 10:02:36;;;;;;;40.10;8.57;;;9.80;99.90;;;;;;7359761;19;20461;-47
2022/12/24 10:05:02;;;;;;;35.67;7.63;;;9.70;99.90;;;;;;7357980;19;20110;-46
2022/12/24 10:08:05;;;;;;;29.95;7.00;;;9.80;99.90;;;;;;7363963;19;20015;-57
2022/12/24 10:10:51;;;;;;;30.63;6.88;;;9.80;99.90;;;;;;7365475;19;20022;-56
2022/12/24 10:13:39;;;;;;;36.38;7.35;;;9.80;99.90;;;;;;7365572;19;20014;-58
2022/12/24 10:16:20;;;;;;;32.58;7.45;;;9.90;99.90;;;;;;7364037;19;20011;-58
2022/12/24 10:19:03;;;;;;;31.17;7.90;;;10.00;99.90;;;;;;7355239;19;20113;-48
2022/12/24 10:21:55;;;;;;;56.47;31.48;;;10.00;99.90;;;;;;7356365;19;20019;-49
2022/12/24 10:24:44;;;;;;;36.80;8.60;;;10.00;99.90;;;;;;7354841;19;20022;-48
2022/12/24 10:27:17;;;;;;;33.45;7.55;;;10.00;99.90;;;;;;7360294;19;20407;-58
2022/12/24 10:29:48;;;;;;;33.05;6.90;;;10.10;99.90;;;;;;7358565;19;20038;-57
2022/12/24 10:32:21;;;;;;;29.47;6.37;;;10.00;99.90;;;;;;7354444;19;20389;-47
2022/12/24 10:35:17;;;;;;;32.42;6.10;;;10.10;99.90;;;;;;7356599;19;20599;-49
2022/12/24 10:37:46;;;;;;;38.13;6.28;;;10.10;99.90;;;;;;7350874;19;20028;-58
2022/12/24 10:40:22;;;;;;;29.17;6.35;;;10.10;99.90;;;;;;7359402;19;20132;-59
2022/12/24 10:42:49;;;;;;;35.03;8.18;;;10.10;99.90;;;;;;7356178;19;20018;-47
2022/12/24 10:45:21;;;;;;;34.90;6.25;;;10.20;99.90;;;;;;7360761;19;20029;-50
2022/12/24 10:47:54;;;;;;;32.15;7.93;;;10.20;99.90;;;;;;7358861;19;20014;-49
2022/12/24 10:50:35;;;;;;;32.55;7.18;;;10.20;99.90;;;;;;7356603;19;20770;-49
2022/12/24 10:53:11;;;;;;;34.95;6.85;;;10.20;99.90;;;;;;7350842;19;20387;-48
2022/12/24 10:55:38;;;;;;;37.22;7.70;;;10.30;99.90;;;;;;7360835;19;20049;-46
2022/12/24 10:58:11;;;;;;;38.97;7.28;;;10.30;99.90;;;;;;7355395;19;20490;-48
2022/12/24 11:00:40;;;;;;;40.10;7.47;;;10.30;99.90;;;;;;7357883;19;20042;-46
2022/12/24 11:03:27;;;;;;;41.25;8.65;;;10.20;99.90;;;;;;7357778;19;20044;-46
2022/12/24 11:06:04;;;;;;;42.03;8.10;;;10.20;99.90;;;;;;7359017;19;20512;-47
2022/12/24 11:08:32;;;;;;;39.03;7.70;;;10.20;99.90;;;;;;7354325;19;21391;-51
2022/12/24 11:11:02;;;;;;;44.33;7.93;;;10.20;99.90;;;;;;7353959;19;20014;-48
2022/12/24 11:13:36;;;;;;;44.03;7.80;;;10.20;99.90;;;;;;7356844;19;20366;-46
2022/12/24 11:16:32;;;;;;;41.50;8.60;;;10.20;99.90;;;;;;7358173;19;20476;-46
2022/12/24 11:19:02;;;;;;;46.58;9.20;;;10.20;99.90;;;;;;7358117;19;20060;-46
2022/12/24 11:21:34;;;;;;;47.47;9.60;;;10.10;99.90;;;;;;7354561;19;20023;-48
2022/12/24 11:24:25;;;;;;;41.13;9.50;;;10.10;99.90;;;;;;7358014;19;20018;-46
2022/12/24 11:26:51;;;;;;;48.90;8.77;;;10.10;99.90;;;;;;7361713;19;20014;-47
2022/12/24 11:29:22;;;;;;;41.33;8.68;;;10.10;99.90;;;;;;7354780;19;20492;-48
2022/12/24 11:31:51;;;;;;;39.50;9.38;;;10.10;99.90;;;;;;7356186;19;20025;-49
2022/12/24 11:34:23;;;;;;;38.45;8.45;;;10.10;99.90;;;;;;7353527;19;21144;-47
2022/12/24 11:36:50;;;;;;;;;;;10.10;99.90;;;;;;7360894;19;20859;-48
2022/12/24 11:39:25;;;;;;;46.03;9.13;;;10.20;99.90;;;;;;7357380;19;20030;-51
2022/12/24 11:41:53;;;;;;;36.17;7.90;;;10.20;99.90;;;;;;7353723;19;20015;-51
2022/12/24 11:44:27;;;;;;;37.28;7.28;;;10.20;99.90;;;;;;7353705;19;20117;-48
2022/12/24 11:46:57;;;;;;;39.80;7.82;;;10.30;99.90;;;;;;7352419;19;20034;-51
2022/12/24 11:49:31;;;;;;;47.35;8.50;;;10.40;99.90;;;;;;7353890;19;20022;-50
2022/12/24 11:52:20;;;;;;;31.50;7.25;;;10.40;99.90;;;;;;7356544;19;20014;-48
2022/12/24 11:55:11;;;;;;;42.35;7.10;;;10.40;99.90;;;;;;7355132;19;20014;-47
2022/12/24 11:58:05;;;;;;;36.60;6.65;;;10.40;99.90;;;;;;7356635;19;20026;-49
2022/12/24 12:00:32;;;;;;;35.33;6.80;;;10.50;99.90;;;;;;7353794;19;20022;-50
2022/12/24 12:03:01;;;;;;;28.25;5.40;;;10.60;99.90;;;;;;7363365;19;20029;-57
2022/12/24 12:05:32;;;;;;;35.60;7.13;;;10.80;99.90;;;;;;7363125;19;20465;-57
2022/12/24 12:08:17;;;;;;;39.75;7.30;;;10.80;99.90;;;;;;7357425;19;20446;-53
2022/12/24 12:10:50;;;;;;;33.30;6.95;;;10.70;99.90;;;;;;7363522;19;20018;-47
2022/12/24 12:13:31;;;;;;;31.58;6.68;;;10.70;99.90;;;;;;7355368;19;20573;-48
2022/12/24 12:16:29;;;;;;;32.50;6.85;;;10.60;99.90;;;;;;7354930;19;20793;-48
2022/12/24 12:19:03;;;;;;;30.30;5.15;;;10.60;99.90;;;;;;7354578;19;20063;-47
2022/12/24 12:21:40;;;;;;;31.80;6.38;;;10.50;99.90;;;;;;7356276;19;20251;-50
2022/12/24 12:24:15;;;;;;;31.88;6.18;;;10.50;99.90;;;;;;7357671;19;20040;-47
2022/12/24 12:26:43;;;;;;;27.27;5.97;;;10.50;99.90;;;;;;7357663;19;20789;-49
2022/12/24 12:29:32;;;;;;;27.98;5.60;;;10.50;99.90;;;;;;7356087;19;20026;-49
2022/12/24 12:32:15;;;;;;;32.35;6.65;;;10.60;99.90;;;;;;7355705;19;20016;-49
2022/12/24 12:34:55;;;;;;;38.53;7.22;;;10.60;99.90;;;;;;7357737;19;21005;-50
2022/12/24 12:37:38;;;;;;;26.83;5.45;;;10.60;99.90;;;;;;7358526;19;20600;-57
2022/12/24 12:40:13;;;;;;;27.42;6.13;;;10.50;99.90;;;;;;7373703;19;20011;-57
2022/12/24 12:42:49;;;;;;;28.77;5.05;;;10.50;99.90;;;;;;7363845;19;20038;-56
2022/12/24 12:45:34;;;;;;;29.75;5.75;;;10.50;99.90;;;;;;7365182;19;20025;-57
2022/12/24 12:48:06;;;;;;;32.08;6.18;;;10.40;99.90;;;;;;7372664;19;20019;-57
2022/12/24 12:50:38;;;;;;;28.15;5.65;;;10.40;99.90;;;;;;7359244;19;20685;-47
2022/12/24 12:53:32;;;;;;;25.65;6.05;;;10.30;99.90;;;;;;7355704;19;20029;-49
2022/12/24 12:56:34;;;;;;;34.28;6.50;;;10.30;99.90;;;;;;7366823;19;20014;-57
2022/12/24 12:59:20;;;;;;;31.70;6.85;;;10.40;99.90;;;;;;7361707;19;20011;-45
2022/12/24 13:02:00;;;;;;;29.65;6.72;;;10.40;99.90;;;;;;7360952;19;20018;-57
2022/12/24 13:04:38;;;;;;;32.80;6.32;;;10.40;99.90;;;;;;7369789;19;20082;-47
2022/12/24 13:07:26;;;;;;;24.33;5.15;;;10.40;99.90;;;;;;7360553;19;20445;-49
2022/12/24 13:10:19;;;;;;;22.23;6.95;;;10.40;99.90;;;;;;7369390;19;20015;-56